Ramore, Canada
Current Conditions -  °F | °C
As of 9:23 PM on Saturday 20 Dec 2014 (Local Time) from CYTS Reporting Station
Overcast Overcast  
Wind Chill: -12°   Ceiling: 11000
Heat Index: -12°   Visibility: 15mi
Dew Point: -14°   Wind: 2mph
Humidity: 85%   Direction: 170°S
Pressure: 30.23"   Gusts: NA
Location:  48.42°N, 80.32°W
Report Text: CYTS 210223Z 17002KT 15SM SCT010 OVC110 M12/M14 A3023 RMK SC3AC5 SLP269
Loading
Personal Weather Stations






























Interactive Weather Map New forecast layout! Learn more

10-Day Weather Forecast

Advertisements
Track Severe Weather on mobile